sensor_id;sensor_type;location;lat;lon;timestamp;pressure;altitude;pressure_sealevel;temperature;humidity
8501;BME280;4288;48.484;10.024;2022-12-07T00:01:42;95564.16;;;1.98;nan
8501;BME280;4288;48.484;10.024;2022-12-07T00:04:13;95558.56;;;1.99;nan
8501;BME280;4288;48.484;10.024;2022-12-07T00:06:42;95561.72;;;1.93;nan
8501;BME280;4288;48.484;10.024;2022-12-07T00:09:14;95558.44;;;1.96;nan
8501;BME280;4288;48.484;10.024;2022-12-07T00:11:42;95558.44;;;1.96;nan
8501;BME280;4288;48.484;10.024;2022-12-07T00:14:13;95549.75;;;1.95;nan
8501;BME280;4288;48.484;10.024;2022-12-07T00:16:41;95553.94;;;1.96;nan
8501;BME280;4288;48.484;10.024;2022-12-07T00:19:09;95545.13;;;1.92;nan
8501;BME280;4288;48.484;10.024;2022-12-07T00:21:37;95549.50;;;1.88;nan
8501;BME280;4288;48.484;10.024;2022-12-07T00:24:06;95550.28;;;1.89;nan
8501;BME280;4288;48.484;10.024;2022-12-07T00:26:37;95555.88;;;1.87;nan
8501;BME280;4288;48.484;10.024;2022-12-07T00:29:06;95552.47;;;1.87;nan
8501;BME280;4288;48.484;10.024;2022-12-07T00:31:36;95555.22;;;1.90;nan
8501;BME280;4288;48.484;10.024;2022-12-07T00:34:05;95555.22;;;1.90;nan
8501;BME280;4288;48.484;10.024;2022-12-07T00:36:32;95553.25;;;1.87;nan
8501;BME280;4288;48.484;10.024;2022-12-07T00:39:00;95549.41;;;1.85;nan
8501;BME280;4288;48.484;10.024;2022-12-07T00:41:29;95548.94;;;1.83;nan
8501;BME280;4288;48.484;10.024;2022-12-07T00:43:58;95549.84;;;1.87;nan
8501;BME280;4288;48.484;10.024;2022-12-07T00:46:25;95543.47;;;1.88;nan
8501;BME280;4288;48.484;10.024;2022-12-07T00:48:53;95545.13;;;1.92;nan
8501;BME280;4288;48.484;10.024;2022-12-07T00:51:23;95548.56;;;1.93;nan
8501;BME280;4288;48.484;10.024;2022-12-07T00:53:51;95542.06;;;1.90;nan
8501;BME280;4288;48.484;10.024;2022-12-07T00:56:21;95542.84;;;1.91;nan
8501;BME280;4288;48.484;10.024;2022-12-07T00:58:53;95540.19;;;1.91;nan
8501;BME280;4288;48.484;10.024;2022-12-07T01:01:23;95540.97;;;1.91;nan
8501;BME280;4288;48.484;10.024;2022-12-07T01:03:51;95551.97;;;1.93;nan
8501;BME280;4288;48.484;10.024;2022-12-07T01:06:20;95542.06;;;1.90;nan
8501;BME280;4288;48.484;10.024;2022-12-07T01:08:47;95550.28;;;1.89;nan
8501;BME280;4288;48.484;10.024;2022-12-07T01:11:19;95542.38;;;1.89;nan
8501;BME280;4288;48.484;10.024;2022-12-07T01:13:48;95536.47;;;1.92;nan
8501;BME280;4288;48.484;10.024;2022-12-07T01:16:17;95539.09;;;1.92;nan
8501;BME280;4288;48.484;10.024;2022-12-07T01:18:48;95544.69;;;1.90;nan
8501;BME280;4288;48.484;10.024;2022-12-07T01:21:18;95552.59;;;1.90;nan
8501;BME280;4288;48.484;10.024;2022-12-07T01:23:47;95548.56;;;1.93;nan
8501;BME280;4288;48.484;10.024;2022-12-07T01:26:16;95538.78;;;1.93;nan
8501;BME280;4288;48.484;10.024;2022-12-07T01:28:44;95537.69;;;1.94;nan
8501;BME280;4288;48.484;10.024;2022-12-07T01:31:14;95544.47;;;1.95;nan
8501;BME280;4288;48.484;10.024;2022-12-07T01:33:44;95546.69;;;1.93;nan
8501;BME280;4288;48.484;10.024;2022-12-07T01:36:17;95549.00;;;1.95;nan
8501;BME280;4288;48.484;10.024;2022-12-07T01:38:47;95546.03;;;1.96;nan
8501;BME280;4288;48.484;10.024;2022-12-07T01:41:15;95553.16;;;1.96;nan
8501;BME280;4288;48.484;10.024;2022-12-07T01:44:21;95545.59;;;1.94;nan
8501;BME280;4288;48.484;10.024;2022-12-07T01:46:50;95551.63;;;1.95;nan
8501;BME280;4288;48.484;10.024;2022-12-07T01:49:31;95546.25;;;1.91;nan
8501;BME280;4288;48.484;10.024;2022-12-07T01:52:13;95541.28;;;1.90;nan
8501;BME280;4288;48.484;10.024;2022-12-07T01:54:42;95544.34;;;1.92;nan
8501;BME280;4288;48.484;10.024;2022-12-07T01:57:11;95540.66;;;1.93;nan
8501;BME280;4288;48.484;10.024;2022-12-07T01:59:39;95541.84;;;1.95;nan
8501;BME280;4288;48.484;10.024;2022-12-07T02:02:12;95536.16;;;1.93;nan
8501;BME280;4288;48.484;10.024;2022-12-07T02:04:41;95544.06;;;1.93;nan
8501;BME280;4288;48.484;10.024;2022-12-07T02:07:09;95542.50;;;1.92;nan
8501;BME280;4288;48.484;10.024;2022-12-07T02:09:37;95544.34;;;1.92;nan
8501;BME280;4288;48.484;10.024;2022-12-07T02:12:05;95549.19;;;1.90;nan
8501;BME280;4288;48.484;10.024;2022-12-07T02:14:32;95548.09;;;1.91;nan
8501;BME280;4288;48.484;10.024;2022-12-07T02:17:10;95540.66;;;1.93;nan
8501;BME280;4288;48.484;10.024;2022-12-07T02:20:17;95548.22;;;1.94;nan
8501;BME280;4288;48.484;10.024;2022-12-07T02:23:17;95546.38;;;1.95;nan
8501;BME280;4288;48.484;10.024;2022-12-07T02:26:05;95542.94;;;1.94;nan
8501;BME280;4288;48.484;10.024;2022-12-07T02:29:06;95538.47;;;1.95;nan
8501;BME280;4288;48.484;10.024;2022-12-07T02:31:40;95540.09;;;1.99;nan
8501;BME280;4288;48.484;10.024;2022-12-07T02:34:17;95540.09;;;1.99;nan
8501;BME280;4288;48.484;10.024;2022-12-07T02:36:53;95538.47;;;1.95;nan
8501;BME280;4288;48.484;10.024;2022-12-07T02:39:28;95538.56;;;1.98;nan
8501;BME280;4288;48.484;10.024;2022-12-07T02:42:04;95544.63;;;1.99;nan
8501;BME280;4288;48.484;10.024;2022-12-07T02:44:36;95541.09;;;1.95;nan
8501;BME280;4288;48.484;10.024;2022-12-07T02:47:07;95540.66;;;1.93;nan
8501;BME280;4288;48.484;10.024;2022-12-07T02:49:37;95537.91;;;1.89;nan
8501;BME280;4288;48.484;10.024;2022-12-07T02:52:05;95539.88;;;1.92;nan
8501;BME280;4288;48.484;10.024;2022-12-07T02:54:32;95532.75;;;1.93;nan
8501;BME280;4288;48.484;10.024;2022-12-07T02:57:08;95533.19;;;1.95;nan
8501;BME280;4288;48.484;10.024;2022-12-07T02:59:54;95525.72;;;1.97;nan
8501;BME280;4288;48.484;10.024;2022-12-07T03:02:35;95522.19;;;1.93;nan
8501;BME280;4288;48.484;10.024;2022-12-07T03:05:54;95528.56;;;1.92;nan
8501;BME280;4288;48.484;10.024;2022-12-07T03:08:31;95530.75;;;1.90;nan
8501;BME280;4288;48.484;10.024;2022-12-07T03:11:04;95528.88;;;1.90;nan
8501;BME280;4288;48.484;10.024;2022-12-07T03:13:38;95530.84;;;1.81;nan
8501;BME280;4288;48.484;10.024;2022-12-07T03:16:14;95535.94;;;1.77;nan
8501;BME280;4288;48.484;10.024;2022-12-07T03:18:46;95532.44;;;1.73;nan
8501;BME280;4288;48.484;10.024;2022-12-07T03:21:18;95528.91;;;1.69;nan
8501;BME280;4288;48.484;10.024;2022-12-07T03:23:53;95533.47;;;1.60;nan
8501;BME280;4288;48.484;10.024;2022-12-07T03:26:24;95537.59;;;1.49;nan
8501;BME280;4288;48.484;10.024;2022-12-07T03:28:55;95541.63;;;1.47;nan
8501;BME280;4288;48.484;10.024;2022-12-07T03:31:30;95535.56;;;1.46;nan
8501;BME280;4288;48.484;10.024;2022-12-07T03:34:03;95536.03;;;1.48;nan
8501;BME280;4288;48.484;10.024;2022-12-07T03:36:37;95531.88;;;1.47;nan
8501;BME280;4288;48.484;10.024;2022-12-07T03:39:15;95521.56;;;1.54;nan
8501;BME280;4288;48.484;10.024;2022-12-07T03:41:44;95514.28;;;1.60;nan
8501;BME280;4288;48.484;10.024;2022-12-07T03:44:13;95515.25;;;1.55;nan
8501;BME280;4288;48.484;10.024;2022-12-07T03:46:49;95515.25;;;1.55;nan
8501;BME280;4288;48.484;10.024;2022-12-07T03:49:23;95517.28;;;1.50;nan
8501;BME280;4288;48.484;10.024;2022-12-07T03:51:56;95506.09;;;1.53;nan
8501;BME280;4288;48.484;10.024;2022-12-07T03:54:31;95511.81;;;1.55;nan
8501;BME280;4288;48.484;10.024;2022-12-07T03:57:02;95510.41;;;1.57;nan
8501;BME280;4288;48.484;10.024;2022-12-07T03:59:30;95517.53;;;1.57;nan
8501;BME280;4288;48.484;10.024;2022-12-07T04:02:04;95523.66;;;1.49;nan
8501;BME280;4288;48.484;10.024;2022-12-07T04:04:33;95524.19;;;1.42;nan
8501;BME280;4288;48.484;10.024;2022-12-07T04:07:00;95526.94;;;1.46;nan
8501;BME280;4288;48.484;10.024;2022-12-07T04:09:28;95530.63;;;1.45;nan
8501;BME280;4288;48.484;10.024;2022-12-07T04:11:55;95521.84;;;1.41;nan
8501;BME280;4288;48.484;10.024;2022-12-07T04:14:22;95531.75;;;1.44;nan
8501;BME280;4288;48.484;10.024;2022-12-07T04:16:52;95525.38;;;1.45;nan
8501;BME280;4288;48.484;10.024;2022-12-07T04:19:24;95524.03;;;1.39;nan
8501;BME280;4288;48.484;10.024;2022-12-07T04:21:52;95525.25;;;1.41;nan
8501;BME280;4288;48.484;10.024;2022-12-07T04:24:19;95526.16;;;1.45;nan
8501;BME280;4288;48.484;10.024;2022-12-07T04:26:47;95523.84;;;1.44;nan
8501;BME280;4288;48.484;10.024;2022-12-07T04:29:15;95517.34;;;1.41;nan
8501;BME280;4288;48.484;10.024;2022-12-07T04:31:43;95517.69;;;1.40;nan
8501;BME280;4288;48.484;10.024;2022-12-07T04:34:11;95517.03;;;1.43;nan
8501;BME280;4288;48.484;10.024;2022-12-07T04:36:41;95511.75;;;1.43;nan
8501;BME280;4288;48.484;10.024;2022-12-07T04:39:17;95518.31;;;1.37;nan
8501;BME280;4288;48.484;10.024;2022-12-07T04:41:44;95514.38;;;1.43;nan
8501;BME280;4288;48.484;10.024;2022-12-07T04:44:14;95519.19;;;1.41;nan
8501;BME280;4288;48.484;10.024;2022-12-07T04:46:42;95517.56;;;1.36;nan
8501;BME280;4288;48.484;10.024;2022-12-07T04:49:09;95510.41;;;1.37;nan
8501;BME280;4288;48.484;10.024;2022-12-07T04:51:37;95503.94;;;1.34;nan
8501;BME280;4288;48.484;10.024;2022-12-07T04:54:05;95506.13;;;1.32;nan
8501;BME280;4288;48.484;10.024;2022-12-07T04:56:32;95503.28;;;1.37;nan
8501;BME280;4288;48.484;10.024;2022-12-07T04:59:02;95505.91;;;1.37;nan
8501;BME280;4288;48.484;10.024;2022-12-07T05:01:30;95514.91;;;1.36;nan
8501;BME280;4288;48.484;10.024;2022-12-07T05:03:57;95512.78;;;1.30;nan
8501;BME280;4288;48.484;10.024;2022-12-07T05:06:24;95513.75;;;1.25;nan
8501;BME280;4288;48.484;10.024;2022-12-07T05:08:52;95514.84;;;1.24;nan
8501;BME280;4288;48.484;10.024;2022-12-07T05:11:20;95517.47;;;1.24;nan
8501;BME280;4288;48.484;10.024;2022-12-07T05:14:10;95521.97;;;1.24;nan
8501;BME280;4288;48.484;10.024;2022-12-07T05:16:38;95524.91;;;1.22;nan
8501;BME280;4288;48.484;10.024;2022-12-07T05:19:07;95521.19;;;1.23;nan
8501;BME280;4288;48.484;10.024;2022-12-07T05:21:34;95517.34;;;1.21;nan
8501;BME280;4288;48.484;10.024;2022-12-07T05:24:02;95516.69;;;1.24;nan
8501;BME280;4288;48.484;10.024;2022-12-07T05:26:31;95516.25;;;1.22;nan
8501;BME280;4288;48.484;10.024;2022-12-07T05:28:59;95514.06;;;1.24;nan
8501;BME280;4288;48.484;10.024;2022-12-07T05:31:26;95507.41;;;1.26;nan
8501;BME280;4288;48.484;10.024;2022-12-07T05:33:54;95504.94;;;1.21;nan
8501;BME280;4288;48.484;10.024;2022-12-07T05:36:21;95509.75;;;1.19;nan
8501;BME280;4288;48.484;10.024;2022-12-07T05:38:48;95512.09;;;1.21;nan
8501;BME280;4288;48.484;10.024;2022-12-07T05:41:18;95516.56;;;1.20;nan
8501;BME280;4288;48.484;10.024;2022-12-07T05:44:05;95516.91;;;1.19;nan
8501;BME280;4288;48.484;10.024;2022-12-07T05:46:32;95514.72;;;1.21;nan
8501;BME280;4288;48.484;10.024;2022-12-07T05:49:00;95515.47;;;1.21;nan
8501;BME280;4288;48.484;10.024;2022-12-07T05:51:27;95515.00;;;1.19;nan
8501;BME280;4288;48.484;10.024;2022-12-07T05:53:54;95512.72;;;1.18;nan
8501;BME280;4288;48.484;10.024;2022-12-07T05:56:21;95522.47;;;1.17;nan
8501;BME280;4288;48.484;10.024;2022-12-07T05:58:49;95517.84;;;1.14;nan
8501;BME280;4288;48.484;10.024;2022-12-07T06:01:35;95521.13;;;1.11;nan
8501;BME280;4288;48.484;10.024;2022-12-07T06:04:02;95516.63;;;1.12;nan
8501;BME280;4288;48.484;10.024;2022-12-07T06:06:29;95517.59;;;1.07;nan
8501;BME280;4288;48.484;10.024;2022-12-07T06:08:56;95517.13;;;1.05;nan
8501;BME280;4288;48.484;10.024;2022-12-07T06:11:23;95522.25;;;1.02;nan
8501;BME280;4288;48.484;10.024;2022-12-07T06:14:04;95520.13;;;0.95;nan
8501;BME280;4288;48.484;10.024;2022-12-07T06:16:31;95519.56;;;0.89;nan
8501;BME280;4288;48.484;10.024;2022-12-07T06:19:00;95512.59;;;0.85;nan
8501;BME280;4288;48.484;10.024;2022-12-07T06:21:27;95514.78;;;0.83;nan
8501;BME280;4288;48.484;10.024;2022-12-07T06:23:54;95516.81;;;0.77;nan
8501;BME280;4288;48.484;10.024;2022-12-07T06:26:21;95513.09;;;0.78;nan
8501;BME280;4288;48.484;10.024;2022-12-07T06:28:49;95506.31;;;0.77;nan
8501;BME280;4288;48.484;10.024;2022-12-07T06:31:16;95506.31;;;0.77;nan
8501;BME280;4288;48.484;10.024;2022-12-07T06:33:43;95511.44;;;0.74;nan
8501;BME280;4288;48.484;10.024;2022-12-07T06:36:11;95517.44;;;0.74;nan
8501;BME280;4288;48.484;10.024;2022-12-07T06:38:38;95511.69;;;0.81;nan
8501;BME280;4288;48.484;10.024;2022-12-07T06:41:06;95511.44;;;0.74;nan
8501;BME280;4288;48.484;10.024;2022-12-07T06:43:33;95511.00;;;0.63;nan
8501;BME280;4288;48.484;10.024;2022-12-07T06:46:00;95514.22;;;0.69;nan
8501;BME280;4288;48.484;10.024;2022-12-07T06:48:27;95506.53;;;0.64;nan
8501;BME280;4288;48.484;10.024;2022-12-07T06:50:55;95502.34;;;0.63;nan
8501;BME280;4288;48.484;10.024;2022-12-07T06:53:23;95502.34;;;0.63;nan
8501;BME280;4288;48.484;10.024;2022-12-07T06:55:50;95498.28;;;0.74;nan
8501;BME280;4288;48.484;10.024;2022-12-07T06:58:18;95496.69;;;0.81;nan
8501;BME280;4288;48.484;10.024;2022-12-07T07:00:47;95499.00;;;0.83;nan
8501;BME280;4288;48.484;10.024;2022-12-07T07:03:14;95503.13;;;0.93;nan
8501;BME280;4288;48.484;10.024;2022-12-07T07:05:42;95510.06;;;0.97;nan
8501;BME280;4288;48.484;10.024;2022-12-07T07:08:09;95509.41;;;1.00;nan
8501;BME280;4288;48.484;10.024;2022-12-07T07:10:38;95508.78;;;1.03;nan
8501;BME280;4288;48.484;10.024;2022-12-07T07:13:05;95513.53;;;1.10;nan
8501;BME280;4288;48.484;10.024;2022-12-07T07:15:33;95505.19;;;1.08;nan
8501;BME280;4288;48.484;10.024;2022-12-07T07:18:00;95510.44;;;1.08;nan
8501;BME280;4288;48.484;10.024;2022-12-07T07:20:29;95512.13;;;1.12;nan
8501;BME280;4288;48.484;10.024;2022-12-07T07:22:56;95515.78;;;1.20;nan
8501;BME280;4288;48.484;10.024;2022-12-07T07:25:23;95514.72;;;1.21;nan
8501;BME280;4288;48.484;10.024;2022-12-07T07:27:52;95522.09;;;1.27;nan
8501;BME280;4288;48.484;10.024;2022-12-07T07:30:19;95522.38;;;1.34;nan
8501;BME280;4288;48.484;10.024;2022-12-07T07:32:46;95519.97;;;1.41;nan
8501;BME280;4288;48.484;10.024;2022-12-07T07:35:14;95515.63;;;1.45;nan
8501;BME280;4288;48.484;10.024;2022-12-07T07:37:41;95520.75;;;1.42;nan
8501;BME280;4288;48.484;10.024;2022-12-07T07:40:09;95530.31;;;1.46;nan
8501;BME280;4288;48.484;10.024;2022-12-07T07:42:37;95523.59;;;1.57;nan
8501;BME280;4288;48.484;10.024;2022-12-07T07:45:07;95524.66;;;1.56;nan
8501;BME280;4288;48.484;10.024;2022-12-07T07:47:34;95519.09;;;1.58;nan
8501;BME280;4288;48.484;10.024;2022-12-07T07:50:01;95517.34;;;1.62;nan
8501;BME280;4288;48.484;10.024;2022-12-07T07:52:29;95515.03;;;1.60;nan
8501;BME280;4288;48.484;10.024;2022-12-07T07:54:56;95512.22;;;1.65;nan
8501;BME280;4288;48.484;10.024;2022-12-07T07:57:23;95518.56;;;1.64;nan
8501;BME280;4288;48.484;10.024;2022-12-07T07:59:50;95533.53;;;1.72;nan
8501;BME280;4288;48.484;10.024;2022-12-07T08:02:20;95537.06;;;1.76;nan
8501;BME280;4288;48.484;10.024;2022-12-07T08:04:48;95539.41;;;1.90;nan
8501;BME280;4288;48.484;10.024;2022-12-07T08:07:15;95532.53;;;1.98;nan
8501;BME280;4288;48.484;10.024;2022-12-07T08:09:42;95537.16;;;2.01;nan
8501;BME280;4288;48.484;10.024;2022-12-07T08:12:09;95543.13;;;2.10;nan
8501;BME280;4288;48.484;10.024;2022-12-07T08:14:36;95551.59;;;2.15;nan
8501;BME280;4288;48.484;10.024;2022-12-07T08:17:04;95559.44;;;2.24;nan
8501;BME280;4288;48.484;10.024;2022-12-07T08:19:33;95555.22;;;2.23;nan
8501;BME280;4288;48.484;10.024;2022-12-07T08:22:00;95563.91;;;2.23;nan
8501;BME280;4288;48.484;10.024;2022-12-07T08:24:27;95567.41;;;2.15;nan
8501;BME280;4288;48.484;10.024;2022-12-07T08:26:54;95563.69;;;2.28;nan
8501;BME280;4288;48.484;10.024;2022-12-07T08:29:22;95574.59;;;2.27;nan
8501;BME280;4288;48.484;10.024;2022-12-07T08:31:49;95570.41;;;2.26;nan
8501;BME280;4288;48.484;10.024;2022-12-07T08:34:16;95566.66;;;2.27;nan
8501;BME280;4288;48.484;10.024;2022-12-07T08:36:44;95567.13;;;2.29;nan
8501;BME280;4288;48.484;10.024;2022-12-07T08:39:11;95568.47;;;2.35;nan
8501;BME280;4288;48.484;10.024;2022-12-07T08:41:39;95562.09;;;2.36;nan
8501;BME280;4288;48.484;10.024;2022-12-07T08:44:06;95567.38;;;2.36;nan
8501;BME280;4288;48.484;10.024;2022-12-07T08:46:37;95574.94;;;2.37;nan
8501;BME280;4288;48.484;10.024;2022-12-07T08:49:10;95567.69;;;2.34;nan
8501;BME280;4288;48.484;10.024;2022-12-07T08:51:39;95567.94;;;2.41;nan
8501;BME280;4288;48.484;10.024;2022-12-07T08:54:10;95565.41;;;2.45;nan
8501;BME280;4288;48.484;10.024;2022-12-07T08:56:38;95568.22;;;2.28;nan
8501;BME280;4288;48.484;10.024;2022-12-07T08:59:06;95573.09;;;2.38;nan
8501;BME280;4288;48.484;10.024;2022-12-07T09:01:34;95564.31;;;2.46;nan
8501;BME280;4288;48.484;10.024;2022-12-07T09:04:01;95570.47;;;2.38;nan
8501;BME280;4288;48.484;10.024;2022-12-07T09:06:28;95576.41;;;2.47;nan
8501;BME280;4288;48.484;10.024;2022-12-07T09:08:58;95564.00;;;2.59;nan
8501;BME280;4288;48.484;10.024;2022-12-07T09:11:27;95566.44;;;2.64;nan
8501;BME280;4288;48.484;10.024;2022-12-07T09:13:55;95562.59;;;2.74;nan
8501;BME280;4288;48.484;10.024;2022-12-07T09:16:22;95570.28;;;2.79;nan
8501;BME280;4288;48.484;10.024;2022-12-07T09:18:49;95568.31;;;2.76;nan
8501;BME280;4288;48.484;10.024;2022-12-07T09:21:17;95569.09;;;2.77;nan
8501;BME280;4288;48.484;10.024;2022-12-07T09:23:44;95566.78;;;2.87;nan
8501;BME280;4288;48.484;10.024;2022-12-07T09:26:11;95561.53;;;2.99;nan
8501;BME280;4288;48.484;10.024;2022-12-07T09:28:39;95566.91;;;3.15;nan
8501;BME280;4288;48.484;10.024;2022-12-07T09:31:06;95566.78;;;2.99;nan
8501;BME280;4288;48.484;10.024;2022-12-07T09:33:34;95567.34;;;3.05;nan
8501;BME280;4288;48.484;10.024;2022-12-07T09:36:01;95567.69;;;3.03;nan
8501;BME280;4288;48.484;10.024;2022-12-07T09:38:30;95560.66;;;3.19;nan
8501;BME280;4288;48.484;10.024;2022-12-07T09:41:05;95565.47;;;3.29;nan
8501;BME280;4288;48.484;10.024;2022-12-07T09:43:35;95557.66;;;3.33;nan
8501;BME280;4288;48.484;10.024;2022-12-07T09:46:05;95547.88;;;3.33;nan
8501;BME280;4288;48.484;10.024;2022-12-07T09:48:35;95548.75;;;3.37;nan
8501;BME280;4288;48.484;10.024;2022-12-07T09:51:14;95547.41;;;3.43;nan
8501;BME280;4288;48.484;10.024;2022-12-07T09:53:43;95546.50;;;3.51;nan
8501;BME280;4288;48.484;10.024;2022-12-07T09:56:13;95542.78;;;3.52;nan
8501;BME280;4288;48.484;10.024;2022-12-07T09:58:41;95534.25;;;3.59;nan
8501;BME280;4288;48.484;10.024;2022-12-07T10:01:14;95538.13;;;3.49;nan
8501;BME280;4288;48.484;10.024;2022-12-07T10:03:48;95534.31;;;3.47;nan
8501;BME280;4288;48.484;10.024;2022-12-07T10:06:16;95536.47;;;3.57;nan
8501;BME280;4288;48.484;10.024;2022-12-07T10:08:44;95528.25;;;3.46;nan
8501;BME280;4288;48.484;10.024;2022-12-07T10:11:11;95530.34;;;3.53;nan
8501;BME280;4288;48.484;10.024;2022-12-07T10:13:43;95520.81;;;3.76;nan
8501;BME280;4288;48.484;10.024;2022-12-07T10:16:38;95527.22;;;3.63;nan
8501;BME280;4288;48.484;10.024;2022-12-07T10:19:22;95527.56;;;3.61;nan
8501;BME280;4288;48.484;10.024;2022-12-07T10:22:13;95519.28;;;3.63;nan
8501;BME280;4288;48.484;10.024;2022-12-07T10:24:43;95522.47;;;3.69;nan
8501;BME280;4288;48.484;10.024;2022-12-07T10:27:20;95528.00;;;3.91;nan
8501;BME280;4288;48.484;10.024;2022-12-07T10:29:50;95522.47;;;3.96;nan
8501;BME280;4288;48.484;10.024;2022-12-07T10:32:32;95514.28;;;3.86;nan
8501;BME280;4288;48.484;10.024;2022-12-07T10:35:23;95512.94;;;3.92;nan
8501;BME280;4288;48.484;10.024;2022-12-07T10:37:55;95505.63;;;4.16;nan
8501;BME280;4288;48.484;10.024;2022-12-07T10:40:31;95502.66;;;4.18;nan
8501;BME280;4288;48.484;10.024;2022-12-07T10:43:18;95505.56;;;4.13;nan
8501;BME280;4288;48.484;10.024;2022-12-07T10:46:13;95503.09;;;4.35;nan
8501;BME280;4288;48.484;10.024;2022-12-07T10:48:59;95498.66;;;4.39;nan
8501;BME280;4288;48.484;10.024;2022-12-07T10:51:37;95504.81;;;4.43;nan
8501;BME280;4288;48.484;10.024;2022-12-07T10:54:14;95496.81;;;4.40;nan
8501;BME280;4288;48.484;10.024;2022-12-07T10:57:07;95491.69;;;4.63;nan
8501;BME280;4288;48.484;10.024;2022-12-07T11:00:03;95498.44;;;4.76;nan
8501;BME280;4288;48.484;10.024;2022-12-07T11:02:50;95495.16;;;4.82;nan
8501;BME280;4288;48.484;10.024;2022-12-07T11:05:27;95485.53;;;4.74;nan
8501;BME280;4288;48.484;10.024;2022-12-07T11:08:09;95484.59;;;4.82;nan
8501;BME280;4288;48.484;10.024;2022-12-07T11:10:48;95475.28;;;4.88;nan
8501;BME280;4288;48.484;10.024;2022-12-07T11:13:28;95469.59;;;5.05;nan
8501;BME280;4288;48.484;10.024;2022-12-07T11:16:20;95469.94;;;5.04;nan
8501;BME280;4288;48.484;10.024;2022-12-07T11:19:34;95468.03;;;4.85;nan
8501;BME280;4288;48.484;10.024;2022-12-07T11:22:14;95474.22;;;5.08;nan
8501;BME280;4288;48.484;10.024;2022-12-07T11:24:54;95465.84;;;5.06;nan
8501;BME280;4288;48.484;10.024;2022-12-07T11:27:34;95471.34;;;4.82;nan
8501;BME280;4288;48.484;10.024;2022-12-07T11:30:13;95472.63;;;4.88;nan
8501;BME280;4288;48.484;10.024;2022-12-07T11:33:00;95467.06;;;4.93;nan
8501;BME280;4288;48.484;10.024;2022-12-07T11:35:42;95470.81;;;4.92;nan
8501;BME280;4288;48.484;10.024;2022-12-07T11:38:17;95465.88;;;4.91;nan
8501;BME280;4288;48.484;10.024;2022-12-07T11:40:49;95466.41;;;4.65;nan
8501;BME280;4288;48.484;10.024;2022-12-07T11:43:24;95457.78;;;4.68;nan
8501;BME280;4288;48.484;10.024;2022-12-07T11:45:58;95464.00;;;4.91;nan
8501;BME280;4288;48.484;10.024;2022-12-07T11:48:33;95449.41;;;4.82;nan
8501;BME280;4288;48.484;10.024;2022-12-07T11:51:02;95451.97;;;4.78;nan
8501;BME280;4288;48.484;10.024;2022-12-07T11:53:37;95451.63;;;4.80;nan
8501;BME280;4288;48.484;10.024;2022-12-07T11:56:10;95449.25;;;4.75;nan
8501;BME280;4288;48.484;10.024;2022-12-07T11:58:47;95440.28;;;4.64;nan
8501;BME280;4288;48.484;10.024;2022-12-07T12:01:30;95448.31;;;4.51;nan
8501;BME280;4288;48.484;10.024;2022-12-07T12:04:07;95437.03;;;4.54;nan
8501;BME280;4288;48.484;10.024;2022-12-07T12:06:43;95443.09;;;4.55;nan
8501;BME280;4288;48.484;10.024;2022-12-07T12:09:15;95441.66;;;4.42;nan
8501;BME280;4288;48.484;10.024;2022-12-07T12:12:22;95437.66;;;4.32;nan
8501;BME280;4288;48.484;10.024;2022-12-07T12:15:05;95431.59;;;4.16;nan
8501;BME280;4288;48.484;10.024;2022-12-07T12:18:05;95433.31;;;4.24;nan
8501;BME280;4288;48.484;10.024;2022-12-07T12:20:40;95426.72;;;4.18;nan
8501;BME280;4288;48.484;10.024;2022-12-07T12:23:14;95427.06;;;4.17;nan
8501;BME280;4288;48.484;10.024;2022-12-07T12:25:46;95424.34;;;4.13;nan
8501;BME280;4288;48.484;10.024;2022-12-07T12:28:24;95422.97;;;4.19;nan
8501;BME280;4288;48.484;10.024;2022-12-07T12:31:11;95420.50;;;4.26;nan
8501;BME280;4288;48.484;10.024;2022-12-07T12:33:44;95428.53;;;4.30;nan
8501;BME280;4288;48.484;10.024;2022-12-07T12:36:23;95417.28;;;4.33;nan
8501;BME280;4288;48.484;10.024;2022-12-07T12:39:07;95420.84;;;4.40;nan
8501;BME280;4288;48.484;10.024;2022-12-07T12:41:58;95414.72;;;4.36;nan
8501;BME280;4288;48.484;10.024;2022-12-07T12:45:05;95416.41;;;4.29;nan
8501;BME280;4288;48.484;10.024;2022-12-07T12:47:57;95419.50;;;4.31;nan
8501;BME280;4288;48.484;10.024;2022-12-07T12:50:31;95414.53;;;4.45;nan
8501;BME280;4288;48.484;10.024;2022-12-07T12:53:16;95418.78;;;4.49;nan
8501;BME280;4288;48.484;10.024;2022-12-07T12:56:22;95415.97;;;4.58;nan
8501;BME280;4288;48.484;10.024;2022-12-07T12:59:25;95415.38;;;4.49;nan
8501;BME280;4288;48.484;10.024;2022-12-07T13:02:00;95412.22;;;4.28;nan
8501;BME280;4288;48.484;10.024;2022-12-07T13:04:59;95404.25;;;4.59;nan
8501;BME280;4288;48.484;10.024;2022-12-07T13:07:56;95398.44;;;4.69;nan
8501;BME280;4288;48.484;10.024;2022-12-07T13:10:44;95395.41;;;4.51;nan
8501;BME280;4288;48.484;10.024;2022-12-07T13:13:35;95393.69;;;4.43;nan
8501;BME280;4288;48.484;10.024;2022-12-07T13:16:40;95391.97;;;4.51;nan
8501;BME280;4288;48.484;10.024;2022-12-07T13:19:56;95381.31;;;4.47;nan
8501;BME280;4288;48.484;10.024;2022-12-07T13:22:48;95387.78;;;4.66;nan
8501;BME280;4288;48.484;10.024;2022-12-07T13:25:36;95378.31;;;4.49;nan
8501;BME280;4288;48.484;10.024;2022-12-07T13:28:14;95383.03;;;4.56;nan
8501;BME280;4288;48.484;10.024;2022-12-07T13:30:48;95374.81;;;4.61;nan
8501;BME280;4288;48.484;10.024;2022-12-07T13:33:22;95382.34;;;4.43;nan
8501;BME280;4288;48.484;10.024;2022-12-07T13:35:54;95374.66;;;4.53;nan
8501;BME280;4288;48.484;10.024;2022-12-07T13:38:27;95377.13;;;4.62;nan
8501;BME280;4288;48.484;10.024;2022-12-07T13:41:13;95372.09;;;4.41;nan
8501;BME280;4288;48.484;10.024;2022-12-07T13:43:52;95375.25;;;4.47;nan
8501;BME280;4288;48.484;10.024;2022-12-07T13:46:25;95371.75;;;4.43;nan
8501;BME280;4288;48.484;10.024;2022-12-07T13:48:55;95374.09;;;4.29;nan
8501;BME280;4288;48.484;10.024;2022-12-07T13:51:25;95376.47;;;4.34;nan
8501;BME280;4288;48.484;10.024;2022-12-07T13:53:58;95369.13;;;4.43;nan
8501;BME280;4288;48.484;10.024;2022-12-07T13:56:33;95370.75;;;4.32;nan
8501;BME280;4288;48.484;10.024;2022-12-07T13:59:01;95366.59;;;4.15;nan
8501;BME280;4288;48.484;10.024;2022-12-07T14:01:30;95366.75;;;4.07;nan
8501;BME280;4288;48.484;10.024;2022-12-07T14:04:31;95364.28;;;3.98;nan
8501;BME280;4288;48.484;10.024;2022-12-07T14:07:00;95371.88;;;4.00;nan
8501;BME280;4288;48.484;10.024;2022-12-07T14:09:29;95376.41;;;3.99;nan
8501;BME280;4288;48.484;10.024;2022-12-07T14:11:58;95373.25;;;3.94;nan
8501;BME280;4288;48.484;10.024;2022-12-07T14:14:29;95365.97;;;3.91;nan
8501;BME280;4288;48.484;10.024;2022-12-07T14:17:01;95370.50;;;3.90;nan
8501;BME280;4288;48.484;10.024;2022-12-07T14:19:49;95369.97;;;3.85;nan